Airport View

Enter AWOS ICAO identifier for current METAR.

ex. KFNL

KDAB 270053Z 00000KT 10SM BKN090 OVC150 12/09 A3007 RMK SLP181 T01220089

27 Jan 2020 01:01

Phone: 386-253-7469

Other Area AWOS: KOMN - KEVB - KDED - KFIN

TAF KDAB 262350Z 2700/2724 00000KT P6SM BKN120 BKN250 FM270300 VRB03KT P6SM OVC080 FM271600 28005KT P6SM SCT050 OVC070 FM272000 04007KT P6SM SCT050 OVC070